Time;durP1;ratioP1;P1;durP2;ratioP2;P2;SDS_P1;SDS_P2;PMS_P1;PMS_P2;Temp;Humidity;BMP_temperature;BMP_pressure;BME280_temperature;BME280_humidity;BME280_pressure;Samples;Min_cycle;Max_cycle;Signal;HPM_P1;HPM_P2
2021/03/28 00:00:19;;;;;;;99.45;52.50;;;;;;;5.31;57.98;102086.88;1762416;80;25614;-58
2021/03/28 00:02:56;;;;;;;111.37;51.35;;;;;;;5.30;58.03;102083.80;1762430;80;25665;-58
2021/03/28 00:05:32;;;;;;;112.50;51.53;;;;;;;5.30;59.54;102082.92;1763888;79;27514;-58
2021/03/28 00:08:15;;;;;;;107.15;52.60;;;;;;;5.33;59.22;102081.45;1765101;81;25725;-58
2021/03/28 00:10:51;;;;;;;105.32;51.25;;;;;;;5.38;59.40;102078.09;1786184;79;25613;-58
2021/03/28 00:13:28;;;;;;;99.90;49.13;;;;;;;5.33;59.68;102081.45;1791864;80;26402;-58
2021/03/28 00:16:01;;;;;;;111.55;52.30;;;;;;;5.33;59.77;102081.45;1791884;80;26097;-58
2021/03/28 00:19:11;;;;;;;108.03;52.23;;;;;;;5.36;59.64;102085.78;1762637;81;27539;-57
2021/03/28 00:22:02;;;;;;;108.45;51.85;;;;;;;5.37;59.67;102083.06;1761132;81;25811;-58
2021/03/28 00:24:38;;;;;;;99.20;51.53;;;;;;;5.42;59.23;102078.84;1762257;80;25535;-58
2021/03/28 00:27:26;;;;;;;118.28;54.15;;;;;;;5.44;58.82;102075.17;1776819;78;25653;-58
2021/03/28 00:30:07;;;;;;;105.22;52.90;;;;;;;5.46;58.52;102073.75;1748652;82;26149;-58
2021/03/28 00:32:46;;;;;;;111.85;52.58;;;;;;;5.47;58.17;102074.16;1829595;77;27516;-58
2021/03/28 00:35:19;;;;;;;105.72;53.48;;;;;;;5.41;57.92;102078.45;1748718;82;25743;-58
2021/03/28 00:38:04;;;;;;;103.92;52.43;;;;;;;5.35;57.69;102076.04;1829079;78;25737;-58
2021/03/28 00:40:33;;;;;;;115.72;52.50;;;;;;;5.28;57.68;102076.33;1829262;78;26532;-58
2021/03/28 00:43:18;;;;;;;112.40;52.62;;;;;;;5.21;57.94;102072.66;1793642;78;25488;-58
2021/03/28 00:45:52;;;;;;;111.72;52.73;;;;;;;5.13;57.82;102077.03;1724305;82;28582;-58
2021/03/28 00:48:28;;;;;;;110.35;52.67;;;;;;;5.01;57.77;102077.97;1733248;82;25606;-59
2021/03/28 00:51:20;;;;;;;101.35;48.58;;;;;;;4.95;57.66;102082.24;1792585;79;25620;-58
2021/03/28 00:53:56;;;;;;;100.15;50.10;;;;;;;4.89;57.61;102072.30;1793815;79;25723;-58
2021/03/28 00:56:48;;;;;;;109.97;49.50;;;;;;;4.81;57.36;102067.30;1793516;79;25712;-58
2021/03/28 00:59:25;;;;;;;101.97;49.95;;;;;;;4.70;57.78;102063.77;1793293;79;27533;-59
2021/03/28 01:02:19;;;;;;;109.95;50.92;;;;;;;4.59;57.80;102072.23;1793734;79;25670;-58
2021/03/28 01:04:53;;;;;;;105.32;48.50;;;;;;;4.51;57.73;102081.02;1793826;79;25678;-58
2021/03/28 01:07:34;;;;;;;89.62;48.40;;;;;;;4.35;57.59;102083.45;1793903;79;25596;-58
2021/03/28 01:10:23;;;;;;;99.60;46.70;;;;;;;4.29;57.75;102084.57;1810298;78;25649;-58
2021/03/28 01:13:34;;;;;;;99.60;48.55;;;;;;;4.21;57.64;102084.88;1748726;81;28455;-58
2021/03/28 01:16:58;;;;;;;94.75;45.95;;;;;;;4.15;57.87;102079.80;1829821;78;25749;-57
2021/03/28 01:19:51;;;;;;;99.07;49.35;;;;;;;4.03;58.02;102088.31;1801377;79;25674;-58
2021/03/28 01:22:33;;;;;;;99.77;47.62;;;;;;;3.96;57.88;102097.44;1802239;79;25754;-58
2021/03/28 01:25:31;;;;;;;105.22;49.88;;;;;;;3.88;57.99;102093.77;1801734;78;26109;-58
2021/03/28 01:28:20;;;;;;;112.20;51.02;;;;;;;3.83;58.28;102089.96;1802146;78;28394;-58
2021/03/28 01:30:54;;;;;;;100.60;50.20;;;;;;;3.82;58.42;102089.55;1802100;79;25506;-57
2021/03/28 01:33:59;;;;;;;98.90;47.73;;;;;;;3.83;58.77;102083.30;1802310;79;25674;-57
2021/03/28 01:36:38;;;;;;;98.50;47.00;;;;;;;3.85;58.94;102081.90;1802245;79;25703;-57
2021/03/28 01:39:26;;;;;;;102.35;50.28;;;;;;;3.81;59.96;102083.82;1802226;79;26500;-58
2021/03/28 01:42:03;;;;;;;108.12;48.78;;;;;;;3.80;60.10;102085.22;1755853;81;27626;-58
2021/03/28 01:44:51;;;;;;;101.07;50.15;;;;;;;3.82;60.39;102085.56;1815883;78;25455;-58
2021/03/28 01:47:31;;;;;;;99.07;46.58;;;;;;;3.86;60.59;102092.95;1746644;81;25684;-57
2021/03/28 01:50:31;;;;;;;97.02;47.10;;;;;;;3.90;60.96;102096.77;1829806;77;25762;-58
2021/03/28 01:53:30;;;;;;;105.75;45.83;;;;;;;3.93;60.62;102099.77;1704570;84;26099;-57
2021/03/28 01:56:40;;;;;;;94.60;45.75;;;;;;;3.93;60.79;102086.45;1720620;83;28517;-57
2021/03/28 01:59:27;;;;;;;97.95;46.25;;;;;;;4.00;60.71;102086.61;1720937;83;25696;-58
2021/03/28 02:02:23;;;;;;;103.97;49.65;;;;;;;4.05;60.96;102090.42;1734039;81;25713;-58
2021/03/28 02:05:16;;;;;;;101.62;47.45;;;;;;;4.06;60.90;102089.05;1734082;81;25684;-58
2021/03/28 02:08:08;;;;;;;92.22;47.90;;;;;;;4.05;60.61;102090.42;1679954;83;25766;-57
2021/03/28 02:11:25;;;;;;;91.87;47.58;;;;;;;4.01;60.32;102088.34;1702148;83;27623;-57
2021/03/28 02:14:25;;;;;;;101.97;48.05;;;;;;;3.96;60.26;102089.01;1695265;84;25461;-58
2021/03/28 02:17:30;;;;;;;90.83;46.92;;;;;;;3.89;60.08;102092.84;1725932;82;25622;-58
2021/03/28 02:20:35;;;;;;;100.58;45.15;;;;;;;3.77;59.59;102088.84;1702536;83;25677;-58
2021/03/28 02:23:29;;;;;;;96.47;45.05;;;;;;;3.73;59.49;102088.09;1705717;84;25702;-58
2021/03/28 02:26:23;;;;;;;100.12;47.90;;;;;;;3.64;59.42;102100.91;1705592;84;27535;-58
2021/03/28 02:28:59;;;;;;;97.62;47.85;;;;;;;3.48;59.69;102089.97;1705546;84;26174;-58
2021/03/28 02:31:38;;;;;;;102.55;47.05;;;;;;;3.36;59.64;102093.48;1705583;84;25717;-57
2021/03/28 02:34:32;;;;;;;91.70;44.00;;;;;;;3.30;59.76;102096.38;1703686;82;25801;-58
2021/03/28 02:37:21;;;;;;;94.42;44.18;;;;;;;3.23;59.86;102090.41;1705826;83;26114;-58
2021/03/28 02:40:35;;;;;;;98.03;45.70;;;;;;;3.20;60.12;102091.88;1705452;82;27547;-58
2021/03/28 02:43:33;;;;;;;87.10;44.70;;;;;;;3.18;60.53;102093.70;1706633;82;25726;-58
2021/03/28 02:46:27;;;;;;;86.12;43.35;;;;;;;3.16;60.89;102097.35;1705484;83;25731;-58
2021/03/28 02:49:40;;;;;;;94.07;43.38;;;;;;;3.15;60.90;102100.94;1762796;81;25707;-58
2021/03/28 02:52:23;;;;;;;97.22;44.73;;;;;;;3.16;61.24;102098.69;1788516;80;25780;-58
2021/03/28 02:55:34;;;;;;;89.45;44.23;;;;;;;3.18;61.19;102103.49;1724412;83;27542;-58
2021/03/28 02:58:28;;;;;;;92.37;42.10;;;;;;;3.16;61.40;102102.20;1733372;82;26234;-58
2021/03/28 03:01:13;;;;;;;92.75;44.58;;;;;;;3.10;61.36;102095.30;1733516;82;25917;-58
2021/03/28 03:03:47;;;;;;;88.25;43.60;;;;;;;3.10;61.36;102095.30;1792205;80;25645;-58
2021/03/28 03:06:54;;;;;;;91.25;43.55;;;;;;;3.22;61.32;102107.76;1792145;80;25782;-58
2021/03/28 03:09:39;;;;;;;93.47;45.83;;;;;;;3.22;61.26;102099.34;1676867;85;28019;-58
2021/03/28 03:12:37;;;;;;;87.88;44.03;;;;;;;3.15;60.93;102109.77;1676632;84;26066;-58
2021/03/28 03:15:33;;;;;;;96.92;45.33;;;;;;;3.10;60.82;102109.92;1799681;78;25318;-58
2021/03/28 03:18:44;;;;;;;94.65;46.20;;;;;;;3.01;60.65;102107.59;1766292;80;25673;-58
2021/03/28 03:21:48;;;;;;;100.18;50.15;;;;;;;2.93;60.47;102115.86;1775025;80;27595;-56
2021/03/28 03:24:44;;;;;;;89.87;45.45;;;;;;;2.89;60.56;102118.68;1775050;80;25696;-58
2021/03/28 03:28:03;;;;;;;95.28;45.40;;;;;;;2.84;60.60;102120.61;1774939;80;25764;-58
2021/03/28 03:30:49;;;;;;;95.15;45.28;;;;;;;2.81;60.68;102115.83;1774902;80;25611;-58
2021/03/28 03:33:58;;;;;;;98.12;46.00;;;;;;;2.76;61.48;102121.74;1774954;79;25600;-58
2021/03/28 03:36:44;;;;;;;94.97;44.80;;;;;;;2.73;61.43;102123.64;1775107;80;28430;-58
2021/03/28 03:39:35;;;;;;;97.30;46.42;;;;;;;2.74;61.86;102124.05;1774411;80;25843;-58
2021/03/28 03:42:37;;;;;;;91.42;45.10;;;;;;;2.77;61.96;102134.12;1774972;80;25674;-58
2021/03/28 03:45:25;;;;;;;90.87;44.42;;;;;;;2.79;61.91;102129.63;1775080;80;25490;-58
2021/03/28 03:48:18;;;;;;;83.65;41.73;;;;;;;2.79;62.11;102127.41;1775123;80;25786;-58
2021/03/28 03:51:13;;;;;;;89.65;46.15;;;;;;;2.77;62.64;102122.16;1728567;80;27550;-58
2021/03/28 03:54:11;;;;;;;99.30;47.08;;;;;;;2.74;62.47;102128.04;1771813;80;25654;-57
2021/03/28 03:56:51;;;;;;;101.62;47.83;;;;;;;2.71;61.98;102123.70;1728122;80;25730;-57
2021/03/28 03:59:49;;;;;;;91.57;46.53;;;;;;;2.72;61.96;102120.12;1773502;80;26142;-57
2021/03/28 04:02:57;;;;;;;93.50;46.65;;;;;;;2.70;61.96;102124.63;1773450;80;26321;-57
2021/03/28 04:05:54;;;;;;;103.25;49.42;;;;;;;2.66;62.08;102130.94;1774059;80;27635;-57
2021/03/28 04:09:04;;;;;;;99.65;48.98;;;;;;;2.64;62.04;102128.83;1774901;80;25679;-57
2021/03/28 04:11:56;;;;;;;98.92;47.75;;;;;;;2.61;61.80;102131.57;1775102;80;25784;-58
2021/03/28 04:15:00;;;;;;;100.90;45.65;;;;;;;2.56;61.96;102130.84;1778045;80;26187;-57
2021/03/28 04:18:16;;;;;;;104.12;45.03;;;;;;;2.52;62.13;102139.84;1764477;79;26507;-57
2021/03/28 04:21:39;;;;;;;95.90;45.95;;;;;;;2.45;62.13;102136.07;1750180;81;27523;-58
2021/03/28 04:24:51;;;;;;;97.72;47.62;;;;;;;2.47;62.22;102134.68;1742950;81;25730;-58
2021/03/28 04:27:46;;;;;;;103.62;47.55;;;;;;;2.45;62.61;102134.74;1846891;76;26401;-58
2021/03/28 04:30:36;;;;;;;104.17;46.65;;;;;;;2.42;63.21;102136.63;1838910;78;25739;-58
2021/03/28 04:33:18;;;;;;;100.97;47.45;;;;;;;2.45;63.01;102139.17;1757181;81;27534;-58
2021/03/28 04:36:11;;;;;;;100.92;49.80;;;;;;;2.53;63.31;102142.44;1791690;80;25703;-58
2021/03/28 04:39:26;;;;;;;93.78;46.80;;;;;;;2.60;63.17;102140.45;1757414;81;25666;-58
2021/03/28 04:42:23;;;;;;;97.62;46.70;;;;;;;2.71;63.21;102140.98;1759228;80;25747;-58
2021/03/28 04:45:21;;;;;;;99.67;46.05;;;;;;;2.84;63.07;102137.44;1727064;82;26128;-57
2021/03/28 04:48:15;;;;;;;98.50;48.00;;;;;;;2.92;62.81;102140.70;1727065;82;27535;-57
2021/03/28 04:50:56;;;;;;;106.27;49.10;;;;;;;2.97;62.76;102145.86;1726841;83;26245;-56
2021/03/28 04:53:56;;;;;;;104.55;51.25;;;;;;;3.03;62.35;102146.11;1726233;83;25750;-57
2021/03/28 04:56:55;;;;;;;98.17;50.23;;;;;;;3.03;61.98;102146.11;1726818;83;25467;-57
2021/03/28 04:59:34;;;;;;;103.02;50.58;;;;;;;2.96;62.39;102144.12;1726896;83;25595;-57
2021/03/28 05:03:01;;;;;;;107.30;51.88;;;;;;;2.94;62.41;102147.28;1727099;83;27542;-58
2021/03/28 05:05:57;;;;;;;100.15;50.17;;;;;;;2.94;62.40;102145.95;1726786;83;26088;-58
2021/03/28 05:08:50;;;;;;;108.65;46.23;;;;;;;2.93;62.18;102152.19;1726988;83;25576;-58
2021/03/28 05:11:36;;;;;;;100.93;51.10;;;;;;;2.95;62.21;102149.02;1738835;80;25701;-58
2021/03/28 05:14:18;;;;;;;107.83;49.80;;;;;;;3.00;62.25;102147.09;1757092;80;25739;-57
2021/03/28 05:17:21;;;;;;;99.95;51.28;;;;;;;3.02;62.22;102147.03;1768077;80;27554;-58
2021/03/28 05:20:26;;;;;;;114.32;53.02;;;;;;;3.08;62.38;102150.80;1749436;80;25741;-57
2021/03/28 05:23:03;;;;;;;98.95;51.02;;;;;;;3.16;62.48;102150.53;1729269;82;25736;-57
2021/03/28 05:26:09;;;;;;;108.52;51.50;;;;;;;3.20;62.45;102154.81;1746467;82;25799;-57
2021/03/28 05:29:17;;;;;;;105.37;49.67;;;;;;;3.24;62.57;102156.45;1740383;81;26067;-58
2021/03/28 05:32:25;;;;;;;114.75;52.98;;;;;;;3.32;62.38;102154.86;1739692;81;27550;-57
2021/03/28 05:35:34;;;;;;;122.00;56.13;;;;;;;3.40;62.31;102150.12;1779831;79;26128;-58
2021/03/28 05:38:40;;;;;;;118.02;55.17;;;;;;;3.49;62.49;102152.90;1779589;80;25683;-57
2021/03/28 05:41:45;;;;;;;119.60;56.23;;;;;;;3.57;62.58;102149.48;1737825;82;26307;-58
2021/03/28 05:45:10;;;;;;;125.85;59.58;;;;;;;3.63;62.85;102147.06;1768709;81;26146;-57
2021/03/28 05:48:04;;;;;;;131.52;60.90;;;;;;;3.69;62.66;102143.72;1768774;81;27529;-56
2021/03/28 05:51:12;;;;;;;135.87;62.47;;;;;;;3.81;62.63;102146.86;1788138;79;25793;-58
2021/03/28 05:54:18;;;;;;;136.52;65.83;;;;;;;3.89;62.78;102156.75;1800197;79;25594;-58
2021/03/28 05:57:24;;;;;;;160.20;73.37;;;;;;;3.98;62.81;102147.08;1800435;79;25743;-57
2021/03/28 06:00:21;;;;;;;160.03;76.53;;;;;;;4.10;62.81;102145.72;1800006;79;26133;-58
2021/03/28 06:03:21;;;;;;;163.72;74.87;;;;;;;4.24;62.85;102147.84;1800458;79;27362;-58
2021/03/28 06:06:00;;;;;;;173.30;79.17;;;;;;;4.34;62.73;102144.33;1799928;79;25724;-58
2021/03/28 06:08:51;;;;;;;177.10;83.47;;;;;;;4.46;62.60;102142.51;1800315;79;25638;-57
2021/03/28 06:12:03;;;;;;;173.17;85.17;;;;;;;4.58;62.46;102145.58;1768672;81;26130;-58
2021/03/28 06:15:05;;;;;;;185.65;87.65;;;;;;;4.69;62.24;102144.23;1768680;81;25704;-58
2021/03/28 06:18:07;;;;;;;171.95;87.85;;;;;;;4.84;62.23;102143.17;1768776;80;27514;-58
2021/03/28 06:20:56;;;;;;;191.43;91.25;;;;;;;4.97;62.25;102140.84;1768614;81;25720;-58
2021/03/28 06:23:47;;;;;;;168.93;87.53;;;;;;;5.11;62.04;102142.43;1768574;81;25708;-57
2021/03/28 06:26:56;;;;;;;184.63;93.75;;;;;;;5.23;61.85;102138.38;1767013;80;26592;-58
2021/03/28 06:30:19;;;;;;;176.40;87.70;;;;;;;5.35;61.73;102133.41;1768773;78;25837;-58
2021/03/28 06:33:28;;;;;;;169.85;86.02;;;;;;;5.48;61.56;102131.45;1784874;79;27649;-58
2021/03/28 06:36:33;;;;;;;165.50;82.15;;;;;;;5.62;61.19;102129.49;1718579;83;25791;-58
2021/03/28 06:39:10;;;;;;;170.02;86.67;;;;;;;5.77;60.90;102127.92;1734950;82;25625;-58
2021/03/28 06:42:14;;;;;;;170.12;92.10;;;;;;;5.90;60.77;102133.55;1785358;78;25798;-58
2021/03/28 06:45:22;;;;;;;169.60;88.42;;;;;;;6.01;60.63;102125.05;1714755;81;26104;-58
2021/03/28 06:48:19;;;;;;;159.43;83.97;;;;;;;6.16;60.42;102127.95;1762516;81;27511;-57
2021/03/28 06:51:10;;;;;;;167.87;86.60;;;;;;;6.30;60.22;102125.95;1766788;78;25432;-58
2021/03/28 06:54:18;;;;;;;162.18;84.03;;;;;;;6.42;60.16;102123.98;1778223;79;25673;-58
2021/03/28 06:56:52;;;;;;;156.70;77.97;;;;;;;6.57;59.93;102129.05;1784808;79;25651;-57
2021/03/28 06:59:44;;;;;;;150.55;78.12;;;;;;;6.72;59.69;102130.94;1782950;79;25669;-57
2021/03/28 07:02:54;;;;;;;139.88;75.25;;;;;;;6.86;59.43;102124.89;1750492;80;28417;-58
2021/03/28 07:05:47;;;;;;;157.32;76.60;;;;;;;7.03;58.97;102132.05;1717308;82;25696;-58
2021/03/28 07:08:35;;;;;;;149.35;78.05;;;;;;;7.22;58.56;102133.77;1717798;82;25754;-58
2021/03/28 07:11:08;;;;;;;155.45;73.65;;;;;;;7.38;58.41;102128.94;1717384;81;25639;-57
2021/03/28 07:13:46;;;;;;;143.20;75.52;;;;;;;7.54;58.21;102133.85;1715458;82;25974;-57
2021/03/28 07:16:57;;;;;;;156.25;75.35;;;;;;;7.68;58.00;102133.11;1711212;82;27542;-57
2021/03/28 07:19:47;;;;;;;165.57;79.75;;;;;;;7.83;57.77;102127.38;1783159;79;25732;-57
2021/03/28 07:22:53;;;;;;;158.63;76.90;;;;;;;8.02;57.44;102120.55;1771722;78;25853;-57
2021/03/28 07:25:45;;;;;;;160.28;77.67;;;;;;;8.21;57.29;102120.81;1762269;81;25668;-57
2021/03/28 07:29:00;;;;;;;145.10;72.92;;;;;;;8.39;56.91;102113.05;1778498;79;26080;-57
2021/03/28 07:32:08;;;;;;;143.70;75.22;;;;;;;8.57;56.74;102112.95;1815326;78;27531;-58
2021/03/28 07:35:04;;;;;;;136.75;69.37;;;;;;;8.75;56.56;102104.31;1747248;82;25479;-58
2021/03/28 07:38:17;;;;;;;159.90;72.47;;;;;;;8.93;55.71;102109.92;1833901;78;25699;-58
2021/03/28 07:41:25;;;;;;;137.97;71.10;;;;;;;9.10;55.72;102110.72;1833350;77;25519;-58
2021/03/28 07:44:34;;;;;;;141.43;68.45;;;;;;;9.29;54.83;102102.38;1738163;82;25737;-57
2021/03/28 07:47:48;;;;;;;138.05;68.07;;;;;;;9.50;54.39;102100.66;1738015;82;27552;-57
2021/03/28 07:51:12;;;;;;;138.07;71.23;;;;;;;9.68;53.94;102099.50;1809842;79;25674;-58
2021/03/28 07:54:00;;;;;;;140.32;68.72;;;;;;;9.93;53.49;102105.98;1737888;82;25824;-58
2021/03/28 07:56:51;;;;;;;114.65;66.70;;;;;;;10.19;51.80;102111.48;1661094;82;25775;-58
2021/03/28 07:59:36;;;;;;;131.65;63.78;;;;;;;10.37;52.53;102105.85;1809475;79;25794;-58
2021/03/28 08:02:24;;;;;;;91.90;49.65;;;;;;;10.58;51.92;102103.11;1723173;81;28468;-58
2021/03/28 08:05:32;;;;;;;83.27;45.25;;;;;;;10.80;51.45;102100.32;1718394;82;25755;-58
2021/03/28 08:08:46;;;;;;;100.58;53.23;;;;;;;10.99;50.65;102094.52;1739537;81;25680;-58
2021/03/28 08:11:35;;;;;;;101.85;51.00;;;;;;;11.26;48.82;102089.02;1718788;83;26146;-58
2021/03/28 08:14:17;;;;;;;129.57;53.52;;;;;;;11.49;48.10;102088.34;1740113;82;25602;-58
2021/03/28 08:17:20;;;;;;;101.82;48.48;;;;;;;11.66;48.58;102079.91;1737738;81;27622;-58
2021/03/28 08:20:21;;;;;;;97.22;47.23;;;;;;;11.86;47.64;102071.73;1712185;82;25840;-58
2021/03/28 08:23:32;;;;;;;83.80;44.75;;;;;;;12.11;47.16;102062.33;1825744;77;25837;-58
2021/03/28 08:26:40;;;;;;;89.58;44.65;;;;;;;12.35;45.38;102060.97;1815511;77;25767;-58
2021/03/28 08:29:40;;;;;;;85.87;44.08;;;;;;;12.57;45.97;102055.30;1811351;77;25663;-58
2021/03/28 08:32:36;;;;;;;92.60;47.00;;;;;;;12.81;44.96;102062.84;1799926;77;27540;-58
2021/03/28 08:35:38;;;;;;;89.32;49.15;;;;;;;13.01;44.65;102063.13;1779225;80;25470;-58
2021/03/28 08:38:20;;;;;;;86.37;44.85;;;;;;;13.19;45.19;102064.86;1809918;79;25639;-58
2021/03/28 08:41:18;;;;;;;88.72;44.70;;;;;;;13.43;44.21;102055.31;1811333;79;26114;-58
2021/03/28 08:44:35;;;;;;;76.82;37.45;;;;;;;13.95;42.21;102055.25;1833071;77;25648;-57
2021/03/28 08:47:50;;;;;;;64.12;35.78;;;;;;;13.95;42.21;102055.25;1805652;79;25528;-58
2021/03/28 08:51:12;;;;;;;70.22;37.98;;;;;;;14.20;42.52;102054.92;1805325;79;27532;-58
2021/03/28 08:54:20;;;;;;;77.05;42.50;;;;;;;14.50;42.30;102043.85;1803741;79;25752;-59
2021/03/28 08:57:13;;;;;;;71.90;36.30;;;;;;;14.84;41.51;102040.09;1782539;79;25656;-58
2021/03/28 09:00:05;;;;;;;65.92;33.65;;;;;;;15.20;40.06;102038.38;1779288;80;25691;-58
2021/03/28 09:03:08;;;;;;;59.42;33.88;;;;;;;15.49;39.82;102034.41;1771035;80;25633;-58
2021/03/28 09:05:50;;;;;;;65.78;31.62;;;;;;;15.81;39.49;102027.95;1777949;80;27605;-58
2021/03/28 09:08:38;;;;;;;64.32;32.67;;;;;;;16.14;37.83;102027.22;1776581;78;25594;-58
2021/03/28 09:11:34;;;;;;;66.15;34.03;;;;;;;16.43;38.48;102011.43;1794898;78;25791;-58
2021/03/28 09:14:30;;;;;;;65.57;32.63;;;;;;;16.74;37.49;102014.81;1726786;82;25687;-59
2021/03/28 09:17:38;;;;;;;60.67;31.37;;;;;;;17.08;36.60;102004.43;1726955;82;25713;-58
2021/03/28 09:20:36;;;;;;;48.50;26.93;;;;;;;17.43;35.69;102008.28;1727932;82;27533;-58
2021/03/28 09:23:37;;;;;;;50.33;30.82;;;;;;;17.86;34.46;102009.44;1718047;81;25795;-57
2021/03/28 09:26:36;;;;;;;63.58;29.75;;;;;;;18.24;33.38;102007.98;1724701;82;26103;-58
2021/03/28 09:29:36;;;;;;;55.00;29.40;;;;;;;18.67;31.89;102001.31;1728791;81;25898;-58
2021/03/28 09:32:33;;;;;;;51.58;28.23;;;;;;;19.18;31.20;101996.89;1718961;82;25586;-58
2021/03/28 09:35:38;;;;;;;52.00;28.00;;;;;;;19.95;31.60;101987.73;1745588;82;27541;-58
2021/03/28 09:38:36;;;;;;;50.38;27.70;;;;;;;20.82;31.17;101989.59;1717054;82;26282;-58
2021/03/28 09:42:02;;;;;;;49.85;26.87;;;;;;;21.72;29.09;101984.30;1743190;82;25718;-58
2021/03/28 09:45:16;;;;;;;47.03;24.90;;;;;;;22.28;28.76;101968.09;1727836;82;25544;-58
2021/03/28 09:48:07;;;;;;;46.18;27.17;;;;;;;23.02;27.88;101970.65;1724649;81;25702;-58
2021/03/28 09:51:03;;;;;;;42.83;25.27;;;;;;;23.67;25.36;101966.19;1718246;81;27531;-58
2021/03/28 09:54:12;;;;;;;48.30;21.17;;;;;;;24.20;25.61;101961.78;1737467;82;25612;-58
2021/03/28 09:57:19;;;;;;;33.05;18.70;;;;;;;24.66;23.31;101956.81;1726179;82;25635;-58
2021/03/28 10:00:20;;;;;;;34.38;17.62;;;;;;;24.41;20.86;101956.44;1740149;82;25633;-58
2021/03/28 10:03:20;;;;;;;31.25;16.95;;;;;;;24.31;21.23;101952.13;1739928;81;25667;-58
2021/03/28 10:05:50;;;;;;;32.17;16.42;;;;;;;24.65;20.23;101934.50;1724940;80;28513;-58
2021/03/28 10:08:21;;;;;;;34.98;16.40;;;;;;;25.03;19.91;101929.95;1716917;82;25766;-58
2021/03/28 10:10:58;;;;;;;24.65;14.83;;;;;;;25.62;18.58;101931.78;1767319;81;25779;-58
2021/03/28 10:13:53;;;;;;;27.77;17.07;;;;;;;25.92;19.43;101918.98;1747275;81;25742;-58
2021/03/28 10:16:26;;;;;;;44.00;16.82;;;;;;;26.38;18.31;101917.31;1724545;82;25725;-58
2021/03/28 10:19:09;;;;;;;;;;;;;;;26.64;18.00;101921.91;1659528;83;27554;-58
2021/03/28 10:22:28;;;;;;;30.32;16.62;;;;;;;26.78;19.01;101911.72;1731704;80;25668;-58
2021/03/28 10:25:45;;;;;;;28.42;15.60;;;;;;;27.41;17.21;101920.38;1742861;81;25662;-58
2021/03/28 10:28:41;;;;;;;31.25;13.40;;;;;;;27.89;16.45;101909.34;1751128;81;25736;-59
2021/03/28 10:31:26;;;;;;;19.75;12.82;;;;;;;27.10;15.68;101919.25;1750808;81;25653;-59
2021/03/28 10:34:44;;;;;;;37.65;13.18;;;;;;;26.28;16.08;101915.52;1756979;80;27533;-59
2021/03/28 10:37:35;;;;;;;22.20;13.38;;;;;;;25.29;17.17;101915.97;1762397;81;26145;-59
2021/03/28 10:40:45;;;;;;;21.20;13.43;;;;;;;24.68;18.21;101917.09;1764478;79;25680;-59
2021/03/28 10:43:21;;;;;;;29.50;14.23;;;;;;;24.35;18.22;101921.80;1786293;78;26689;-59
2021/03/28 10:46:13;;;;;;;23.22;15.18;;;;;;;24.09;18.23;101928.45;1799823;77;25703;-58
2021/03/28 10:48:53;;;;;;;26.77;14.58;;;;;;;23.76;18.46;101913.33;1799704;78;27601;-58
2021/03/28 10:52:04;;;;;;;23.25;13.85;;;;;;;23.72;18.54;101916.16;1779357;78;25821;-58
2021/03/28 10:55:12;;;;;;;23.00;13.70;;;;;;;23.65;19.10;101909.22;1774306;78;25745;-58
2021/03/28 10:58:06;;;;;;;23.38;14.38;;;;;;;24.22;18.06;101896.97;1734567;82;25882;-58
2021/03/28 11:01:09;;;;;;;;;;;;;;;24.78;17.82;101885.06;1731984;80;25895;-58
2021/03/28 11:04:11;;;;;;;21.45;11.95;;;;;;;25.16;16.74;101886.48;1723671;81;27538;-58
2021/03/28 11:07:35;;;;;;;26.07;12.03;;;;;;;24.71;16.60;101875.94;1739937;81;26110;-58
2021/03/28 11:10:26;;;;;;;20.40;13.23;;;;;;;23.14;18.02;101869.80;1721575;82;25715;-59
2021/03/28 11:13:20;;;;;;;20.48;12.10;;;;;;;23.14;18.02;101869.80;1705614;82;25725;-59
2021/03/28 11:16:33;;;;;;;17.92;11.57;;;;;;;22.35;18.77;101875.36;1771440;78;25718;-59
2021/03/28 11:19:42;;;;;;;26.23;12.80;;;;;;;21.90;19.35;101870.31;1718865;83;27539;-59
2021/03/28 11:22:46;;;;;;;21.05;12.55;;;;;;;21.49;19.94;101865.98;1667627;83;25903;-59
2021/03/28 11:25:24;;;;;;;24.12;12.00;;;;;;;21.17;20.17;101874.75;1733456;82;25577;-59
2021/03/28 11:28:35;;;;;;;24.85;13.85;;;;;;;20.77;20.77;101876.14;1792094;80;26138;-59
2021/03/28 11:31:30;;;;;;;20.68;12.55;;;;;;;20.50;21.00;101876.02;1712798;81;25553;-58
2021/03/28 11:34:22;;;;;;;23.05;13.25;;;;;;;19.99;21.76;101878.51;1885842;76;25555;-58
2021/03/28 11:37:01;;;;;;;27.00;12.63;;;;;;;19.80;22.06;101871.49;1856975;77;26194;-58
2021/03/28 11:39:33;;;;;;;29.00;13.10;;;;;;;19.71;22.32;101878.81;1819187;78;27350;-58
2021/03/28 11:42:14;;;;;;;21.82;12.53;;;;;;;19.61;22.32;101881.37;1801778;78;26179;-58
2021/03/28 11:45:04;;;;;;;22.62;13.80;;;;;;;19.48;22.55;101886.80;1786994;80;25693;-58
2021/03/28 11:47:49;;;;;;;28.57;13.85;;;;;;;19.31;22.58;101888.66;1786998;80;25666;-58
2021/03/28 11:50:37;;;;;;;21.93;13.65;;;;;;;19.11;23.02;101893.53;1786862;80;26347;-57
2021/03/28 11:53:24;;;;;;;32.58;15.40;;;;;;;18.92;23.53;101900.08;1786557;80;27545;-57
2021/03/28 11:55:59;;;;;;;16.87;10.25;;;;;;;18.81;23.94;101916.72;1786907;80;25649;-57
2021/03/28 11:58:41;;;;;;;29.20;10.50;;;;;;;18.63;24.77;101904.03;1786970;80;25652;-57
2021/03/28 12:01:11;;;;;;;20.68;12.35;;;;;;;18.37;25.18;101906.27;1786861;80;25609;-57
2021/03/28 12:03:43;;;;;;;28.20;15.85;;;;;;;18.09;25.37;101925.98;1787020;80;25794;-58
2021/03/28 12:06:23;;;;;;;23.85;14.78;;;;;;;17.75;25.94;101934.84;1817128;77;27591;-57
2021/03/28 12:08:56;;;;;;;22.10;14.07;;;;;;;17.51;27.67;101930.84;1823921;77;25686;-58
2021/03/28 12:11:49;;;;;;;24.02;14.50;;;;;;;17.29;27.96;101937.08;1847275;77;25688;-58
2021/03/28 12:14:27;;;;;;;29.60;15.98;;;;;;;17.03;28.32;101924.69;1779753;80;25653;-57
2021/03/28 12:17:19;;;;;;;25.55;14.30;;;;;;;16.85;29.12;101925.45;1802553;77;25660;-57
2021/03/28 12:20:10;;;;;;;29.55;14.90;;;;;;;16.76;29.53;101931.78;1819178;78;28498;-57
2021/03/28 12:22:46;;;;;;;20.80;13.20;;;;;;;16.59;30.46;101922.52;1794261;78;25833;-57
2021/03/28 12:25:28;;;;;;;26.05;14.60;;;;;;;16.57;31.17;101925.40;1769797;80;25631;-57
2021/03/28 12:28:20;;;;;;;22.48;13.75;;;;;;;16.54;31.37;101941.98;1781801;79;26227;-57
2021/03/28 12:30:49;;;;;;;21.02;13.83;;;;;;;16.38;32.19;101946.69;1782141;80;26085;-58
2021/03/28 12:33:23;;;;;;;29.02;14.63;;;;;;;16.18;32.47;101937.69;1768418;79;28397;-58
2021/03/28 12:36:02;;;;;;;26.35;15.40;;;;;;;16.06;34.17;101949.72;1779443;79;26117;-58
2021/03/28 12:38:39;;;;;;;28.50;16.17;;;;;;;15.76;35.48;101971.88;1786957;80;25761;-57
2021/03/28 12:41:27;;;;;;;30.80;18.60;;;;;;;15.48;36.70;101973.03;1796532;78;25982;-58
2021/03/28 12:44:09;;;;;;;33.05;19.73;;;;;;;15.24;37.76;101985.11;1786797;80;25920;-57
2021/03/28 12:47:06;;;;;;;34.40;22.60;;;;;;;15.09;38.99;101995.97;1754932;81;27553;-58
2021/03/28 12:49:55;;;;;;;39.73;24.45;;;;;;;14.87;40.14;101993.78;1785410;80;25659;-58
2021/03/28 12:52:37;;;;;;;39.90;25.20;;;;;;;14.60;41.83;102001.94;1803501;78;25761;-57
2021/03/28 12:55:26;;;;;;;55.98;31.02;;;;;;;14.35;43.16;102012.65;1786018;80;25577;-58
2021/03/28 12:58:07;;;;;;;49.48;28.80;;;;;;;14.16;46.03;102012.01;1767057;80;25723;-58
2021/03/28 13:00:56;;;;;;;44.13;26.65;;;;;;;13.93;47.40;102025.63;1762929;81;28326;-57
2021/03/28 13:03:46;;;;;;;52.80;26.77;;;;;;;13.63;49.88;102024.46;1766978;81;25451;-57
2021/03/28 13:06:26;;;;;;;40.78;23.55;;;;;;;13.39;52.01;102032.24;1767388;81;25731;-57
2021/03/28 13:09:05;;;;;;;32.53;19.52;;;;;;;13.17;53.32;102045.70;1766337;80;25938;-57
2021/03/28 13:11:53;;;;;;;21.07;8.48;;;;;;;12.90;55.39;102057.70;1768068;79;25730;-58
2021/03/28 13:14:47;;;;;;;16.80;4.30;;;;;;;12.54;57.52;102082.05;1773130;79;28544;-57